Time;durP1;ratioP1;P1;durP2;ratioP2;P2;SDS_P1;SDS_P2;PMS_P1;PMS_P2;Temp;Humidity;BMP_temperature;BMP_pressure;BME280_temperature;BME280_humidity;BME280_pressure;Samples;Min_cycle;Max_cycle;Signal;HPM_P1;HPM_P2
2022/11/02 05:21:44;;;;;;;31.45;26.95;;;16.60;99.90;;;;;;4592725;19;20007;-26
2022/11/02 05:23:17;;;;;;;31.70;27.80;;;16.60;99.90;;;;;;4592175;19;20028;-27
2022/11/02 05:24:48;;;;;;;31.85;28.30;;;16.60;99.90;;;;;;4590892;19;20015;-25
2022/11/02 05:26:19;;;;;;;31.10;27.67;;;16.60;99.90;;;;;;4591095;19;20098;-26
2022/11/02 05:27:56;;;;;;;31.95;28.33;;;16.60;99.90;;;;;;4592073;19;20456;-26
2022/11/02 05:29:27;;;;;;;32.17;26.85;;;16.60;99.90;;;;;;4592261;19;20027;-25
2022/11/02 05:30:59;;;;;;;30.15;26.85;;;16.60;99.90;;;;;;4591873;19;20006;-26
2022/11/02 05:32:30;;;;;;;29.10;26.00;;;16.60;99.90;;;;;;4592043;19;20014;-26
2022/11/02 05:34:03;;;;;;;29.08;25.55;;;16.60;99.90;;;;;;4589280;19;20015;-26
2022/11/02 05:35:34;;;;;;;30.55;25.50;;;16.60;99.90;;;;;;4592772;19;20014;-26
2022/11/02 05:37:05;;;;;;;31.00;24.60;;;16.60;99.90;;;;;;4592306;19;20460;-26
2022/11/02 05:38:36;;;;;;;31.77;25.88;;;16.60;99.90;;;;;;4593603;19;20011;-26
2022/11/02 05:40:09;;;;;;;29.80;25.35;;;16.60;99.90;;;;;;4592065;19;20014;-26
2022/11/02 05:41:40;;;;;;;32.45;25.27;;;16.60;99.90;;;;;;4592981;19;20017;-26
2022/11/02 05:43:11;;;;;;;30.92;25.80;;;16.60;99.90;;;;;;4592438;19;20011;-26
2022/11/02 05:44:43;;;;;;;33.08;26.83;;;16.60;99.90;;;;;;4591390;19;20352;-27
2022/11/02 05:46:14;;;;;;;31.58;25.92;;;16.60;99.90;;;;;;4591676;19;20014;-26
2022/11/02 05:47:46;;;;;;;32.30;27.65;;;16.60;99.90;;;;;;4592598;19;20456;-26
2022/11/02 05:49:17;;;;;;;30.50;26.17;;;16.60;99.90;;;;;;4592144;19;20031;-26
2022/11/02 05:50:48;;;;;;;29.60;25.08;;;16.70;99.90;;;;;;4591126;19;20424;-27
2022/11/02 05:52:19;;;;;;;29.05;25.23;;;16.70;99.90;;;;;;4590873;19;20014;-27
2022/11/02 05:53:52;;;;;;;29.95;25.02;;;16.70;99.90;;;;;;4591476;19;20402;-27
2022/11/02 05:55:23;;;;;;;34.97;27.30;;;16.70;99.90;;;;;;4591922;19;20002;-26
2022/11/02 05:56:55;;;;;;;;;;;16.70;99.90;;;;;;4591891;19;20043;-27
2022/11/02 05:58:27;;;;;;;32.53;24.73;;;16.70;99.90;;;;;;4591614;19;19911;-26
2022/11/02 05:59:58;;;;;;;31.15;24.77;;;16.70;99.90;;;;;;4592169;19;20014;-27
2022/11/02 06:01:29;;;;;;;;;;;16.70;99.90;;;;;;4592631;19;20029;-27
2022/11/02 06:03:00;;;;;;;33.88;26.17;;;16.70;99.90;;;;;;4591886;19;19966;-26
2022/11/02 06:04:33;;;;;;;32.92;26.33;;;16.70;99.90;;;;;;4591089;19;20012;-26
2022/11/02 06:06:05;;;;;;;38.30;28.15;;;16.70;99.90;;;;;;4589169;19;20468;-25
2022/11/02 06:07:36;;;;;;;32.00;26.23;;;16.60;99.90;;;;;;4591586;19;20017;-27
2022/11/02 06:09:08;;;;;;;32.67;26.42;;;16.70;99.90;;;;;;4591172;19;20015;-26
2022/11/02 06:10:42;;;;;;;30.88;25.08;;;16.80;99.90;;;;;;4592012;19;20039;-27
2022/11/02 06:12:14;;;;;;;29.17;23.50;;;16.80;99.90;;;;;;4591830;19;20014;-26
2022/11/02 06:13:48;;;;;;;30.35;25.48;;;16.90;99.90;;;;;;4591780;19;20039;-26
2022/11/02 06:15:20;;;;;;;34.33;27.05;;;16.90;99.90;;;;;;4590410;19;20114;-27
2022/11/02 06:16:53;;;;;;;32.17;26.10;;;16.90;99.90;;;;;;4591563;19;20014;-27
2022/11/02 06:18:24;;;;;;;27.77;23.23;;;16.90;99.90;;;;;;4591826;19;20010;-26
2022/11/02 06:19:57;;;;;;;26.20;22.15;;;17.00;99.90;;;;;;4591199;19;20073;-26
2022/11/02 07:12:27;;;;;;;20.35;17.63;;;17.20;99.90;;;;;;4591044;19;20046;-26
2022/11/02 07:13:58;;;;;;;23.13;19.48;;;17.20;99.90;;;;;;4589916;19;20048;-25
2022/11/02 07:15:29;;;;;;;21.05;18.42;;;17.20;99.90;;;;;;4589089;19;20499;-25
2022/11/02 07:17:00;;;;;;;24.40;19.27;;;17.30;99.90;;;;;;4588643;19;20011;-26
2022/11/02 07:18:31;;;;;;;23.02;20.45;;;17.40;99.90;;;;;;4588749;19;20022;-25
2022/11/02 07:20:04;;;;;;;26.27;22.38;;;17.40;99.90;;;;;;4589314;19;20378;-26
2022/11/02 07:21:35;;;;;;;;;;;17.40;99.90;;;;;;4590398;19;20011;-26
2022/11/02 07:23:07;;;;;;;24.33;20.50;;;17.40;99.90;;;;;;4587258;19;19951;-26
2022/11/02 07:24:38;;;;;;;;;;;17.50;99.90;;;;;;4590193;19;20811;-26
2022/11/02 07:26:09;;;;;;;26.15;20.63;;;17.40;99.90;;;;;;4589199;19;19914;-26
2022/11/02 07:27:41;;;;;;;26.48;21.20;;;17.50;99.90;;;;;;4591064;19;20066;-27
2022/11/02 07:29:12;;;;;;;23.83;19.23;;;17.50;99.90;;;;;;4590055;19;20419;-26
2022/11/02 07:30:44;;;;;;;21.92;18.48;;;17.50;99.90;;;;;;4590739;19;20348;-26
2022/11/02 07:32:15;;;;;;;24.95;19.88;;;17.40;99.90;;;;;;4589870;19;20014;-27
2022/11/02 07:33:47;;;;;;;21.77;18.70;;;17.40;99.90;;;;;;4590308;19;20460;-25
2022/11/02 07:35:18;;;;;;;21.88;18.88;;;17.40;99.90;;;;;;4589576;19;20014;-26
2022/11/02 07:36:49;;;;;;;22.15;18.05;;;17.40;99.90;;;;;;4589166;19;20499;-26
2022/11/02 07:38:20;;;;;;;21.65;18.13;;;17.40;99.90;;;;;;4589664;19;20002;-26
2022/11/02 07:39:53;;;;;;;19.30;16.50;;;17.40;99.90;;;;;;4589075;19;20007;-26
2022/11/02 07:41:24;;;;;;;19.25;16.40;;;17.50;99.90;;;;;;4589182;19;20013;-25
2022/11/02 07:42:55;;;;;;;19.48;16.40;;;17.40;99.90;;;;;;4590499;19;20035;-25
2022/11/02 07:44:28;;;;;;;17.27;15.13;;;17.40;99.90;;;;;;4590216;19;20070;-26
2022/11/02 07:46:01;;;;;;;18.77;15.77;;;17.40;99.90;;;;;;4589574;19;20003;-26
2022/11/02 07:47:33;;;;;;;17.25;14.23;;;17.40;99.90;;;;;;4587522;19;20006;-26
2022/11/02 07:49:04;;;;;;;14.43;12.65;;;17.40;99.90;;;;;;4588281;19;20105;-26
2022/11/02 07:50:35;;;;;;;16.65;13.45;;;17.40;99.90;;;;;;4589604;19;20018;-26
2022/11/02 07:52:07;;;;;;;15.00;13.40;;;17.40;99.90;;;;;;4588354;19;20006;-26
2022/11/02 07:53:39;;;;;;;17.35;14.48;;;17.40;99.90;;;;;;4589556;19;20495;-26
2022/11/02 07:55:12;;;;;;;18.85;13.73;;;17.40;99.90;;;;;;4589317;19;20018;-27
2022/11/02 07:56:44;;;;;;;15.70;14.10;;;17.40;99.90;;;;;;4588258;19;20405;-26
2022/11/02 07:58:16;;;;;;;15.13;13.15;;;17.40;99.90;;;;;;4588808;19;20015;-26
2022/11/02 07:59:46;;;;;;;17.70;14.05;;;17.40;99.90;;;;;;4589570;19;20397;-27
2022/11/02 08:01:18;;;;;;;16.60;14.60;;;17.40;99.90;;;;;;4589629;19;20469;-27
2022/11/02 08:02:57;;;;;;;17.25;14.68;;;17.40;99.90;;;;;;4588686;19;20504;-27
2022/11/02 08:04:29;;;;;;;17.17;14.55;;;17.40;99.90;;;;;;4589375;19;20066;-26
2022/11/02 08:06:02;;;;;;;17.98;14.60;;;17.30;99.90;;;;;;4588377;19;20007;-26
2022/11/02 08:07:33;;;;;;;18.05;15.07;;;17.40;99.90;;;;;;4588741;19;20074;-25
2022/11/02 08:09:06;;;;;;;17.15;14.10;;;17.40;99.90;;;;;;4589644;19;20009;-26
2022/11/02 08:11:04;;;;;;;21.33;14.88;;;17.30;99.90;;;;;;4589473;19;20070;-27
2022/11/02 08:28:27;;;;;;;18.13;15.63;;;17.30;99.90;;;;;;4589786;19;20334;-26
2022/11/02 08:29:59;;;;;;;18.95;15.13;;;17.30;99.90;;;;;;4592977;19;20473;-27
2022/11/02 08:31:30;;;;;;;18.92;16.02;;;17.30;99.90;;;;;;4593286;19;20010;-25
2022/11/02 08:33:07;;;;;;;18.52;14.27;;;17.30;99.90;;;;;;4594262;19;20069;-25
2022/11/02 08:34:38;;;;;;;17.42;15.57;;;17.30;99.90;;;;;;4592845;19;20483;-27
2022/11/02 08:36:22;;;;;;;16.42;14.13;;;17.30;99.90;;;;;;4594894;19;20460;-27
2022/11/02 08:37:54;;;;;;;17.98;15.73;;;17.30;99.90;;;;;;4592807;19;20045;-26
2022/11/02 08:39:25;;;;;;;19.02;15.30;;;17.30;99.90;;;;;;4593613;19;20006;-26
2022/11/02 08:40:57;;;;;;;20.00;14.93;;;17.30;99.90;;;;;;4593336;19;20035;-26
2022/11/02 08:42:29;;;;;;;17.27;15.38;;;17.30;99.90;;;;;;4594004;19;20381;-25
2022/11/02 08:44:00;;;;;;;19.83;16.30;;;17.30;99.90;;;;;;4593929;19;20007;-26
2022/11/02 08:45:32;;;;;;;19.40;14.80;;;17.30;99.90;;;;;;4592795;19;20022;-26
2022/11/02 08:47:04;;;;;;;;;;;17.30;99.90;;;;;;4592879;19;20027;-26
2022/11/02 08:48:37;;;;;;;18.35;15.75;;;17.30;99.90;;;;;;4592430;19;19918;-25
2022/11/02 08:50:08;;;;;;;17.42;15.43;;;17.30;99.90;;;;;;4592537;19;20018;-26
2022/11/02 08:51:40;;;;;;;18.85;15.52;;;17.30;99.90;;;;;;4592892;19;20611;-26
2022/11/02 08:53:12;;;;;;;20.30;16.30;;;17.30;99.90;;;;;;4594096;19;20388;-26
2022/11/02 08:54:43;;;;;;;23.98;19.83;;;17.30;99.90;;;;;;4593427;19;20003;-26
2022/11/02 08:56:16;;;;;;;24.60;20.25;;;17.30;99.90;;;;;;4593539;19;20018;-25
2022/11/02 08:57:50;;;;;;;32.60;25.55;;;17.30;99.90;;;;;;4593578;19;20014;-25
2022/11/02 08:59:22;;;;;;;32.60;28.38;;;17.30;99.90;;;;;;4591909;19;20025;-26
2022/11/02 09:00:55;;;;;;;30.75;25.08;;;17.20;99.90;;;;;;4592592;19;20007;-26
2022/11/02 09:02:27;;;;;;;28.52;20.63;;;17.30;99.90;;;;;;4592350;19;20010;-26
2022/11/02 09:03:58;;;;;;;25.63;19.58;;;17.20;99.90;;;;;;4592744;19;20022;-26
2022/11/02 09:05:32;;;;;;;23.92;18.40;;;17.20;99.90;;;;;;4593853;19;20017;-26
2022/11/02 09:07:03;;;;;;;20.02;16.30;;;17.20;99.90;;;;;;4591600;19;20014;-26
2022/11/02 09:08:35;;;;;;;17.00;13.77;;;17.20;99.90;;;;;;4593044;19;20007;-25
2022/11/02 09:10:07;;;;;;;16.88;13.73;;;17.20;99.90;;;;;;4592801;19;20036;-25
2022/11/02 09:11:38;;;;;;;17.88;13.95;;;17.20;99.90;;;;;;4592697;19;20018;-26
2022/11/02 09:13:12;;;;;;;15.32;13.70;;;17.20;99.90;;;;;;4592706;19;20079;-26
2022/11/02 09:14:43;;;;;;;15.75;13.15;;;17.20;99.90;;;;;;4592695;19;20014;-26
2022/11/02 09:16:15;;;;;;;16.38;13.88;;;17.20;99.90;;;;;;4593258;19;20074;-27
2022/11/02 09:19:39;;;;;;;15.13;13.10;;;17.10;99.90;;;;;;4592956;19;20014;-25
2022/11/02 09:21:09;;;;;;;14.73;12.82;;;17.10;99.90;;;;;;4591838;19;20017;-27
2022/11/02 09:22:42;;;;;;;15.57;13.02;;;17.10;99.90;;;;;;4592092;19;20029;-26
2022/11/02 09:24:17;;;;;;;14.30;12.80;;;17.10;99.90;;;;;;4593111;19;20010;-27
2022/11/02 09:31:47;;;;;;;16.73;13.98;;;17.10;99.90;;;;;;4591708;19;20058;-26
2022/11/02 09:38:36;;;;;;;14.55;12.63;;;16.90;99.90;;;;;;4593100;19;20006;-26
2022/11/02 09:40:08;;;;;;;15.93;12.40;;;16.90;99.90;;;;;;4589599;19;20442;-26
2022/11/02 09:41:44;;;;;;;16.45;13.20;;;16.90;99.90;;;;;;4590471;19;20015;-26
2022/11/02 09:43:34;;;;;;;17.38;12.68;;;16.90;99.90;;;;;;4590968;19;20022;-26
2022/11/02 09:45:11;;;;;;;17.00;14.02;;;16.90;99.90;;;;;;4592045;19;20019;-26
2022/11/02 09:46:43;;;;;;;15.77;13.25;;;16.90;99.90;;;;;;4590407;19;20013;-26
2022/11/02 09:48:24;;;;;;;17.40;14.10;;;16.90;99.90;;;;;;4591256;19;20049;-26
2022/11/02 09:49:55;;;;;;;14.43;12.80;;;16.80;99.90;;;;;;4591233;19;20022;-26
2022/11/02 09:51:34;;;;;;;15.40;12.73;;;16.80;99.90;;;;;;4590871;19;20022;-26
2022/11/02 09:53:09;;;;;;;15.68;12.30;;;16.80;99.90;;;;;;4591467;19;20022;-26
2022/11/02 09:54:51;;;;;;;14.90;12.60;;;16.80;99.90;;;;;;4590580;19;20014;-27
2022/11/02 09:56:23;;;;;;;15.30;12.50;;;16.80;99.90;;;;;;4590931;19;20015;-26
2022/11/02 09:58:14;;;;;;;14.00;12.40;;;16.80;99.90;;;;;;4591115;19;20019;-27
2022/11/02 09:59:46;;;;;;;14.55;12.32;;;16.80;99.90;;;;;;4592450;19;20017;-26
2022/11/02 10:01:29;;;;;;;15.15;13.55;;;16.80;99.90;;;;;;4590529;19;20070;-25
2022/11/02 10:03:07;;;;;;;15.57;13.85;;;16.80;99.90;;;;;;4591688;19;20344;-26
2022/11/02 10:04:45;;;;;;;14.70;13.00;;;16.80;99.90;;;;;;4591616;19;20011;-27
2022/11/02 10:06:20;;;;;;;17.73;14.57;;;16.80;99.90;;;;;;4591441;19;20035;-27
2022/11/02 10:08:08;;;;;;;15.95;13.60;;;16.80;99.90;;;;;;4592494;19;20017;-25
2022/11/02 10:09:48;;;;;;;12.93;11.27;;;16.80;99.90;;;;;;4590865;19;20039;-26
2022/11/02 10:11:46;;;;;;;12.90;11.25;;;16.70;99.90;;;;;;4590729;19;20024;-26
2022/11/02 10:13:28;;;;;;;14.32;12.75;;;16.80;99.90;;;;;;4590489;19;20330;-26
2022/11/02 10:15:15;;;;;;;14.40;12.02;;;16.70;99.90;;;;;;4591810;19;20011;-27
2022/11/02 10:17:02;;;;;;;13.40;11.82;;;16.70;99.90;;;;;;4591044;19;20479;-26
2022/11/02 10:18:32;;;;;;;16.42;13.75;;;16.70;99.90;;;;;;4590926;19;20035;-27
2022/11/02 10:20:06;;;;;;;15.05;13.18;;;16.70;99.90;;;;;;4590597;19;20060;-27
2022/11/02 10:21:38;;;;;;;13.88;12.45;;;16.60;99.90;;;;;;4590740;19;20022;-26
2022/11/02 10:23:14;;;;;;;15.38;12.63;;;16.60;99.90;;;;;;4590545;19;20042;-26
2022/11/02 10:24:46;;;;;;;14.30;12.73;;;16.60;99.90;;;;;;4590744;19;20014;-27
2022/11/02 10:26:31;;;;;;;15.80;14.07;;;16.60;99.90;;;;;;4589953;19;20026;-26
2022/11/02 10:28:09;;;;;;;16.48;14.77;;;16.70;99.90;;;;;;4590165;19;20014;-26
2022/11/02 10:29:59;;;;;;;16.88;15.07;;;16.60;99.90;;;;;;4590203;19;20096;-25
2022/11/02 10:31:33;;;;;;;16.63;13.73;;;16.70;99.90;;;;;;4591307;19;20006;-27
2022/11/02 10:33:14;;;;;;;18.35;15.07;;;16.70;99.90;;;;;;4590314;19;20065;-26
2022/11/02 10:34:47;;;;;;;18.88;15.73;;;16.70;99.90;;;;;;4590443;19;20031;-25
2022/11/02 10:36:44;;;;;;;19.38;16.80;;;16.70;99.90;;;;;;4591191;19;20011;-25
2022/11/02 10:47:16;;;;;;;17.60;14.05;;;16.70;99.90;;;;;;4589437;19;20019;-25
2022/11/02 10:49:09;;;;;;;15.80;13.57;;;16.70;99.90;;;;;;4589359;19;20018;-25
2022/11/02 10:51:13;;;;;;;16.75;14.23;;;16.70;99.90;;;;;;4589662;19;20052;-25
2022/11/02 10:52:45;;;;;;;15.95;13.40;;;16.70;99.90;;;;;;4588449;19;20011;-25
2022/11/02 10:54:17;;;;;;;14.73;13.02;;;16.70;99.90;;;;;;4588283;19;20032;-26
2022/11/02 10:56:07;;;;;;;15.00;13.13;;;16.70;99.90;;;;;;4588359;19;20011;-27
2022/11/02 10:57:39;;;;;;;14.30;12.80;;;16.70;99.90;;;;;;4589114;19;20036;-25
2022/11/02 10:59:19;;;;;;;14.50;12.68;;;16.70;99.90;;;;;;4588176;19;20086;-26
2022/11/02 11:01:08;;;;;;;15.90;13.75;;;16.70;99.90;;;;;;4588414;19;20031;-26
2022/11/02 11:02:40;;;;;;;15.52;13.70;;;16.70;99.90;;;;;;4588835;19;20355;-25
2022/11/02 11:04:24;;;;;;;16.55;13.43;;;16.70;99.90;;;;;;4588721;19;20489;-25
2022/11/02 11:06:04;;;;;;;15.38;12.48;;;16.70;99.90;;;;;;4588157;19;20018;-26
2022/11/02 11:07:36;;;;;;;14.48;12.88;;;16.70;99.90;;;;;;4587370;19;20083;-25
2022/11/02 11:09:22;;;;;;;13.43;12.02;;;16.70;99.90;;;;;;4587899;19;20025;-27
2022/11/02 11:10:53;;;;;;;13.75;12.07;;;16.70;99.90;;;;;;4587753;19;20010;-25
2022/11/02 11:12:36;;;;;;;13.95;12.43;;;16.70;99.90;;;;;;4587882;19;20074;-25
2022/11/02 11:14:21;;;;;;;15.13;13.38;;;16.70;99.90;;;;;;4587728;19;20011;-25
2022/11/02 11:15:53;;;;;;;16.45;13.23;;;16.70;99.90;;;;;;4588195;19;20521;-26
2022/11/02 11:17:28;;;;;;;14.90;12.70;;;16.70;99.90;;;;;;4588310;19;20110;-25
2022/11/02 11:18:59;;;;;;;15.55;13.23;;;16.70;99.90;;;;;;4588556;19;20014;-26
2022/11/02 11:20:36;;;;;;;15.00;12.40;;;16.70;99.90;;;;;;4588090;19;20018;-26
2022/11/02 11:22:29;;;;;;;15.82;13.68;;;16.70;99.90;;;;;;4588138;19;20018;-26
2022/11/02 11:24:35;;;;;;;17.15;13.77;;;16.70;99.90;;;;;;4588397;19;20086;-26
2022/11/02 11:26:24;;;;;;;16.98;13.75;;;16.70;99.90;;;;;;4588051;19;20011;-25
2022/11/02 11:27:56;;;;;;;16.45;13.90;;;16.70;99.90;;;;;;4587904;19;20011;-26
2022/11/02 11:29:36;;;;;;;16.85;14.45;;;16.70;99.90;;;;;;4587549;19;20367;-26
2022/11/02 11:31:12;;;;;;;19.63;14.35;;;16.70;99.90;;;;;;4587946;19;20014;-27
2022/11/02 11:32:46;;;;;;;18.13;14.02;;;16.70;99.90;;;;;;4587551;19;20356;-26
2022/11/02 11:34:23;;;;;;;17.60;14.02;;;16.70;99.90;;;;;;4586796;19;20484;-24
2022/11/02 11:35:54;;;;;;;18.80;13.93;;;16.70;99.90;;;;;;4587443;19;20100;-26
2022/11/02 11:37:27;;;;;;;16.30;14.52;;;16.60;99.90;;;;;;4588164;19;20568;-26
2022/11/02 11:39:20;;;;;;;18.05;14.05;;;16.70;99.90;;;;;;4587347;19;20074;-25
2022/11/02 11:40:56;;;;;;;20.23;15.68;;;16.70;99.90;;;;;;4586992;19;20089;-25
2022/11/02 11:42:33;;;;;;;17.67;14.02;;;16.70;99.90;;;;;;4587726;19;20019;-26
2022/11/02 11:44:07;;;;;;;21.52;15.27;;;16.70;99.90;;;;;;4587467;19;20017;-26
2022/11/02 11:45:38;;;;;;;18.70;13.60;;;16.70;99.90;;;;;;4587827;19;20011;-26
2022/11/02 11:47:09;;;;;;;19.00;15.43;;;16.70;99.90;;;;;;4585328;19;20031;-26
2022/11/02 11:50:26;;;;;;;19.35;15.43;;;16.70;99.90;;;;;;4587286;19;20387;-26
2022/11/02 11:51:57;;;;;;;18.55;15.57;;;16.70;99.90;;;;;;4587220;19;20010;-26
2022/11/02 11:53:28;;;;;;;22.05;15.07;;;16.60;99.90;;;;;;4587329;19;20485;-26
2022/11/02 11:55:19;;;;;;;19.92;15.05;;;16.70;99.90;;;;;;4587227;19;20010;-26
2022/11/02 11:56:52;;;;;;;20.45;15.02;;;16.60;99.90;;;;;;4586884;19;20018;-26
2022/11/02 11:58:30;;;;;;;19.65;15.10;;;16.60;99.90;;;;;;4587602;19;20531;-26
2022/11/02 12:00:22;;;;;;;21.55;16.73;;;16.60;99.90;;;;;;4586848;19;20358;-25
2022/11/02 12:07:37;;;;;;;22.20;16.65;;;16.60;99.90;;;;;;4588570;19;20457;-26
2022/11/02 12:09:19;;;;;;;22.80;16.13;;;16.60;99.90;;;;;;4587568;19;20108;-26
2022/11/02 12:10:58;;;;;;;20.55;14.77;;;16.60;99.90;;;;;;4587189;19;20006;-26
2022/11/02 12:12:54;;;;;;;17.98;13.75;;;16.60;99.90;;;;;;4585973;19;20018;-26
2022/11/02 12:14:27;;;;;;;18.58;15.45;;;16.70;99.90;;;;;;4587010;19;20014;-25
2022/11/02 12:16:05;;;;;;;17.80;15.63;;;16.60;99.90;;;;;;4586640;19;20049;-26
2022/11/02 12:18:15;;;;;;;16.27;13.80;;;16.60;99.90;;;;;;4586867;19;20493;-27
2022/11/02 12:20:09;;;;;;;17.35;12.80;;;16.70;99.90;;;;;;4586646;19;20046;-26
2022/11/02 12:22:07;;;;;;;16.23;12.80;;;16.70;99.90;;;;;;4586732;19;20400;-27
2022/11/02 12:23:58;;;;;;;16.77;12.50;;;16.70;99.90;;;;;;4587262;19;20455;-24
2022/11/02 12:25:50;;;;;;;19.80;14.00;;;16.70;99.90;;;;;;4587439;19;20365;-26
2022/11/02 12:27:32;;;;;;;16.67;13.50;;;16.70;99.90;;;;;;4586522;19;20468;-25
2022/11/02 12:29:15;;;;;;;;;;;16.70;99.90;;;;;;4587372;19;20374;-26
2022/11/02 12:31:23;;;;;;;14.32;11.82;;;16.70;99.90;;;;;;4586915;19;19925;-27
2022/11/02 12:33:22;;;;;;;13.27;11.93;;;16.70;99.90;;;;;;4586806;19;20014;-26
2022/11/02 12:35:00;;;;;;;12.77;11.40;;;16.70;99.90;;;;;;4587031;19;20086;-26
2022/11/02 12:36:47;;;;;;;12.43;11.10;;;16.70;99.90;;;;;;4588656;19;20333;-25
2022/11/02 12:38:24;;;;;;;13.52;12.13;;;16.70;99.90;;;;;;4589147;19;20011;-26
2022/11/02 12:40:09;;;;;;;15.23;11.88;;;16.70;99.90;;;;;;4589701;19;20015;-26
2022/11/02 12:41:54;;;;;;;14.75;11.65;;;16.70;99.90;;;;;;4588652;19;20483;-25
2022/11/02 12:43:39;;;;;;;13.90;11.73;;;16.80;99.90;;;;;;4587697;19;20057;-25
2022/11/02 12:45:19;;;;;;;13.07;10.88;;;16.70;99.90;;;;;;4587986;19;20062;-26
2022/11/02 12:47:04;;;;;;;13.48;11.30;;;16.70;99.90;;;;;;4586808;19;20017;-26
2022/11/02 12:48:49;;;;;;;13.05;11.18;;;16.70;99.90;;;;;;4588103;19;20014;-26
2022/11/02 13:04:35;;;;;;;13.18;10.65;;;16.70;99.90;;;;;;4588167;19;20007;-25
2022/11/02 13:06:09;;;;;;;13.07;9.98;;;16.70;99.90;;;;;;4587830;19;20011;-26
2022/11/02 13:07:41;;;;;;;13.27;10.23;;;16.70;99.90;;;;;;4585955;19;20489;-27
2022/11/02 13:09:14;;;;;;;13.30;9.73;;;16.70;99.90;;;;;;4587068;19;20076;-25
2022/11/02 13:10:47;;;;;;;11.73;8.77;;;16.70;99.90;;;;;;4587966;19;20014;-26
2022/11/02 13:12:20;;;;;;;10.07;7.78;;;16.70;99.90;;;;;;4586183;19;20042;-26
2022/11/02 13:13:53;;;;;;;8.52;6.85;;;16.80;99.90;;;;;;4586975;19;20010;-26
2022/11/02 13:15:25;;;;;;;11.10;7.40;;;16.90;99.90;;;;;;4587918;19;20007;-25
2022/11/02 13:17:02;;;;;;;10.57;7.10;;;17.00;99.90;;;;;;4590133;19;20006;-26
2022/11/02 13:18:45;;;;;;;10.63;6.03;;;17.10;99.90;;;;;;4592744;19;20021;-26
2022/11/02 13:20:19;;;;;;;9.23;5.10;;;17.10;99.90;;;;;;4591195;19;20369;-27
2022/11/02 13:21:53;;;;;;;9.10;5.13;;;17.20;99.90;;;;;;4592414;19;20027;-25
2022/11/02 13:23:51;;;;;;;7.88;5.03;;;17.20;99.90;;;;;;4591479;19;20017;-27
2022/11/02 13:25:36;;;;;;;11.07;5.05;;;17.20;99.90;;;;;;4591271;19;20514;-26
2022/11/02 13:27:39;;;;;;;11.93;4.47;;;17.20;99.90;;;;;;4590250;19;20011;-26
2022/11/02 13:29:36;;;;;;;6.22;3.85;;;17.10;99.90;;;;;;4591631;19;20014;-27
2022/11/02 13:31:15;;;;;;;7.65;4.05;;;17.20;99.90;;;;;;4590341;19;20089;-25
2022/11/02 13:32:56;;;;;;;8.98;3.90;;;17.20;99.90;;;;;;4590366;19;20017;-26
2022/11/02 13:34:32;;;;;;;9.90;3.90;;;17.20;99.90;;;;;;4588830;19;20003;-26
2022/11/02 13:36:06;;;;;;;7.07;3.53;;;17.20;99.90;;;;;;4591660;19;20048;-27
2022/11/02 13:37:40;;;;;;;6.97;3.58;;;17.10;99.90;;;;;;4591792;19;20015;-26
2022/11/02 13:39:22;;;;;;;5.65;3.20;;;17.20;99.90;;;;;;4590087;19;20015;-26
2022/11/02 13:41:30;;;;;;;8.38;2.92;;;17.30;99.90;;;;;;4589797;19;20007;-26
2022/11/02 13:43:45;;;;;;;8.38;3.67;;;17.40;99.90;;;;;;4590355;19;20489;-26
2022/11/02 13:45:40;;;;;;;5.55;3.10;;;17.40;99.90;;;;;;4590096;19;20041;-26
2022/11/02 13:47:46;;;;;;;7.97;3.47;;;17.40;99.90;;;;;;4588975;19;20011;-26
2022/11/02 13:49:27;;;;;;;6.25;3.30;;;17.40;99.90;;;;;;4589514;19;20022;-25
2022/11/02 13:51:02;;;;;;;9.23;3.78;;;17.40;99.90;;;;;;4590628;19;20011;-26
2022/11/02 13:52:47;;;;;;;8.15;3.42;;;17.30;99.90;;;;;;4591490;19;20393;-26
2022/11/02 13:54:27;;;;;;;6.93;3.67;;;17.30;99.90;;;;;;4590267;19;20011;-25
2022/11/02 13:56:00;;;;;;;7.13;3.90;;;17.30;99.90;;;;;;4590421;19;20014;-26
2022/11/02 13:57:46;;;;;;;9.25;3.58;;;17.30;99.90;;;;;;4590977;19;20014;-27
2022/11/02 13:59:26;;;;;;;8.77;3.80;;;17.30;99.90;;;;;;4592632;19;20351;-26
2022/11/02 14:01:01;;;;;;;7.80;3.90;;;17.30;99.90;;;;;;4591342;19;20014;-25
2022/11/02 14:02:36;;;;;;;6.35;3.13;;;17.30;99.90;;;;;;4589623;19;20589;-26
2022/11/02 14:04:13;;;;;;;6.13;3.80;;;17.30;99.90;;;;;;4588462;19;20035;-26
2022/11/02 14:05:54;;;;;;;6.70;2.95;;;17.30;99.90;;;;;;4587904;19;20568;-27
2022/11/02 14:07:32;;;;;;;6.45;3.55;;;17.30;99.90;;;;;;4591025;19;20014;-27
2022/11/02 14:09:07;;;;;;;9.00;3.83;;;17.30;99.90;;;;;;4588868;19;20036;-37
2022/11/02 14:10:39;;;;;;;9.23;4.38;;;17.30;99.90;;;;;;4591436;19;20010;-33
2022/11/02 14:12:16;;;;;;;;;;;17.00;99.90;;;;;;4589420;19;20026;-33
2022/11/02 14:13:53;;;;;;;7.30;3.88;;;16.00;99.90;;;;;;4591031;19;19992;-33
2022/11/02 14:15:24;;;;;;;6.35;3.65;;;15.50;99.90;;;;;;4591042;19;20006;-35
2022/11/02 14:16:57;;;;;;;6.13;3.88;;;15.30;99.90;;;;;;4589733;19;20018;-34
2022/11/02 14:18:29;;;;;;;7.20;3.95;;;15.20;99.90;;;;;;4589083;19;20043;-32
2022/11/02 14:20:03;;;;;;;6.53;3.30;;;15.20;99.90;;;;;;4589374;19;20010;-30
2022/11/02 14:21:50;;;;;;;6.68;3.60;;;15.20;99.90;;;;;;4588650;19;20046;-32
2022/11/02 14:23:33;;;;;;;6.20;4.03;;;15.30;99.90;;;;;;4589466;19;20015;-30
2022/11/02 14:26:58;;;;;;;;;;;15.20;99.90;;;;;;4590923;19;20014;-32
2022/11/02 14:28:31;;;;;;;7.22;3.47;;;15.20;99.90;;;;;;4591294;19;19959;-32
2022/11/02 14:30:02;;;;;;;6.80;3.67;;;15.20;99.90;;;;;;4591101;19;20019;-34
2022/11/02 14:31:38;;;;;;;8.05;4.35;;;15.20;99.90;;;;;;4590608;19;20011;-31
2022/11/02 14:33:15;;;;;;;6.28;4.00;;;15.20;99.90;;;;;;4590377;19;20401;-34
2022/11/02 14:35:09;;;;;;;8.07;4.20;;;15.20;99.90;;;;;;4592060;19;20102;-33
2022/11/02 14:36:55;;;;;;;8.82;5.18;;;15.20;99.90;;;;;;4591491;19;20397;-34
2022/11/02 14:38:51;;;;;;;8.80;4.53;;;15.20;99.90;;;;;;4590397;19;20026;-31
2022/11/02 14:40:38;;;;;;;8.10;4.38;;;15.10;99.90;;;;;;4590558;19;20056;-33
2022/11/02 14:42:23;;;;;;;6.72;3.17;;;15.30;99.90;;;;;;4590377;19;20007;-31
2022/11/02 14:44:13;;;;;;;8.23;4.20;;;15.60;99.90;;;;;;4588190;19;20367;-32
2022/11/02 14:46:11;;;;;;;9.95;4.45;;;15.80;99.90;;;;;;4589226;19;20015;-33
2022/11/02 14:47:42;;;;;;;10.43;4.38;;;15.90;99.90;;;;;;4587288;19;20074;-33
2022/11/02 14:49:27;;;;;;;6.20;3.92;;;16.00;99.90;;;;;;4589255;19;20010;-32
2022/11/02 14:51:06;;;;;;;7.47;4.63;;;16.10;99.90;;;;;;4590483;19;20013;-33
2022/11/02 14:52:42;;;;;;;10.45;5.72;;;16.10;99.90;;;;;;4590475;19;20491;-32
2022/11/02 14:54:17;;;;;;;10.60;6.03;;;16.20;99.90;;;;;;4590067;19;20010;-33
2022/11/02 14:55:52;;;;;;;12.98;7.13;;;16.30;99.90;;;;;;4589995;19;20022;-31
2022/11/02 14:57:34;;;;;;;15.23;9.13;;;16.30;99.90;;;;;;4589267;19;20366;-33
2022/11/02 14:59:16;;;;;;;15.65;9.48;;;16.30;99.90;;;;;;4589653;19;20025;-32
2022/11/02 15:00:49;;;;;;;14.80;9.32;;;16.30;99.90;;;;;;4589880;19;20038;-32
2022/11/02 15:02:36;;;;;;;17.38;9.82;;;16.40;99.90;;;;;;4590550;19;20010;-34
2022/11/02 15:04:08;;;;;;;17.73;10.68;;;16.40;99.90;;;;;;4589754;19;20014;-33
2022/11/02 15:05:39;;;;;;;17.15;11.07;;;16.40;99.90;;;;;;4590116;19;20014;-35
2022/11/02 15:24:48;;;;;;;21.45;12.55;;;16.60;99.90;;;;;;4589935;19;20027;-34
2022/11/02 15:26:45;;;;;;;22.90;14.73;;;16.60;99.90;;;;;;4589211;19;20017;-35
2022/11/02 15:28:25;;;;;;;18.55;12.32;;;16.60;99.90;;;;;;4589407;19;20015;-32
2022/11/02 15:29:56;;;;;;;15.57;10.75;;;16.60;99.90;;;;;;4589033;19;20014;-32
2022/11/02 15:31:27;;;;;;;19.33;10.15;;;16.60;99.90;;;;;;4589115;19;20023;-32
2022/11/02 15:33:03;;;;;;;14.35;8.52;;;16.60;99.90;;;;;;4590252;19;20051;-33
2022/11/02 15:34:41;;;;;;;13.20;7.88;;;16.60;99.90;;;;;;4588349;19;20036;-33
2022/11/02 15:36:27;;;;;;;12.85;7.68;;;16.60;99.90;;;;;;4589012;19;20033;-32
2022/11/02 15:38:00;;;;;;;11.80;7.38;;;16.60;99.90;;;;;;4588343;19;20007;-32
2022/11/02 15:39:31;;;;;;;11.98;7.57;;;16.60;99.90;;;;;;4587859;19;19998;-33
2022/11/02 15:41:21;;;;;;;11.85;7.15;;;16.60;99.90;;;;;;4588653;19;20065;-32
2022/11/02 15:43:03;;;;;;;12.52;6.75;;;16.60;99.90;;;;;;4590071;19;20086;-32
2022/11/02 15:45:02;;;;;;;11.23;6.03;;;16.60;99.90;;;;;;4588916;19;20027;-32
2022/11/02 15:46:41;;;;;;;11.38;5.72;;;16.60;99.90;;;;;;4590100;19;20018;-32
2022/11/02 15:48:41;;;;;;;11.52;6.03;;;16.60;99.90;;;;;;4590552;19;20021;-35
2022/11/02 15:50:48;;;;;;;10.10;6.50;;;16.60;99.90;;;;;;4589320;19;20365;-31